Jorge Blanco

Recruteur - Athletic Bilbao
3 Déc 2028
Dimanche
Processus

Personnalité

Adaptabilité (6) Ambition (1) Controverse (4) Loyauté (12) Pression (15) Professionnalisme (5) Sportivité (10) Tempérament (13)

Profil

Style d'entraînement Démocratique
Diplôme Continental B
Détermination 14
Gestion des joueurs 6
Motivation 11
Discipline 9
Satisfaction professionnelle
100%
Fatigue
0%
Rôle Recruteur
Salaire 47.7K p/s
Contrat 14.03.2029

Performance

Comportement Bon
Efficacité de l'entraînement
59%
Développement des joueurs
60%
Prévention des blessures
35%
Mise en place tactique
75%

Événements récents

A participé à une réunion de recrutement maintenant
A participé à une réunion de recrutement maintenant
A participé à une réunion de recrutement maintenant
A participé à une réunion de recrutement maintenant
A participé à une réunion de recrutement maintenant
A participé à une réunion de recrutement 7j
A observé un match 7j
A observé un match 7j

Suivi en cours

106
Joueur Club Statut Capacité Confiance Observé Dernière observation Dernier vote
Luca Williams-Barnett Walsall Actif 124 / 128 40% 1 03.06.2028 -
Endrick Boca Juniors Actif 162 / 158 40% 1 03.06.2028 -
Mateus Mané Burnley Actif 147 / 150 40% 7 31.05.2028 -
Romelle Donovan Brentford Actif 129 / 135 40% 2 31.05.2028 -
Honest Ahanor Atalanta Actif 136 / 140 40% 1 31.05.2028 -
Kauã Moraes Flamengo Actif 123 / 129 40% 1 10.01.2028 -
Siyabonga Mabena Bidvest Wits Actif 131 / 128 40% 1 10.01.2028 -
Alex Verón Vélez Actif 107 / 121 40% 1 10.01.2028 -
Jeremías Merlo Gimnasia La Plata Actif 130 / 127 40% 1 31.12.2027 -
Matias Siltanen Malmo FF Actif 127 / 132 40% 1 31.12.2027 -
Nikolaus Wurmbrand Girona Actif 123 / 125 40% 1 22.06.2027 -
Nestory Irankunda Watford Actif 123 / 121 40% 1 15.06.2027 -
Fermín Barcelona Actif 159 / 158 72% 1 01.06.2027 -
Bazoumana Touré Newcastle United Actif 137 / 147 40% 2 31.05.2027 -
Sascha Britschgi AC Milan Actif 121 / 131 40% 1 28.05.2027 -
Sindre Walle Egeli Udinese Actif 131 / 132 40% 6 26.05.2027 -
Yusi Alavés Actif 127 / 135 40% 5 26.05.2027 -
Victor Hernandez Santa Fe Actif 120 / 127 40% 1 24.05.2027 -
Eliás Montiel Borussia Dortmund Actif 126 / 134 40% 2 21.05.2027 -
Eduardo Lozano Botafogo Actif 149 / 154 40% 7 20.05.2027 -
Sam Amo-Ameyaw RC Strasbourg Actif 129 / 132 40% 3 18.05.2027 -
Senny Mayulu Paris Saint-Germain Actif 139 / 151 40% 5 18.05.2027 -
Sayed Abu Farchi Maccabi Tel Aviv Actif 127 / 131 40% 2 17.05.2027 -
Edmund Baidoo St. Gallen Actif 123 / 124 40% 1 17.05.2027 -
Jones El-Abdellaoui Celta Actif 122 / 134 40% 4 16.05.2027 -
William Gomes Porto Actif 143 / 146 40% 6 12.05.2027 -
Luís Guilherme Sporting CP Actif 129 / 133 40% 2 12.05.2027 -
Cheveyo Tsawa Club Brugge Actif 122 / 124 40% 1 11.05.2027 -
Samir El Mourabet RC Strasbourg Actif 127 / 132 40% 1 11.05.2027 -
Ethan Williams Peterborough United Actif 115 / 118 40% 5 08.05.2027 -
Mohamadou Kanté Crawley Town Actif 118 / 127 40% 4 05.05.2027 -
Oscar Schwartau Norwich City Actif 118 / 125 40% 1 05.05.2027 -
Matvii Ponomarenko Dynamo Kyiv Actif 122 / 121 40% 1 03.05.2027 -
Kirill Glebov CSKA Moscow Actif 122 / 134 40% 4 02.05.2027 -
Caleb Yirenkyi Coventry City Actif 132 / 140 40% 1 01.05.2027 -
Jonathan Asp-Jensen Deportivo La Coruña Actif 126 / 132 40% 1 30.04.2027 -
Lucas Høgsberg RC Strasbourg Actif 134 / 138 40% 1 30.04.2027 -
Othmane Maamma Watford Actif 125 / 124 40% 1 28.04.2027 -
Yussif Saidu Zaragoza Actif 117 / 121 40% 1 27.04.2027 -
Agustín Ruberto River Plate Actif 127 / 130 40% 2 23.04.2027 -
Mikel Gogorza Brondby Actif 130 / 132 40% 3 23.04.2027 -
Ryan Oné Sheffield United Actif 106 / 115 40% 1 23.04.2027 -
James Bacca La Equidad Actif 120 / 138 40% 1 21.04.2027 -
Chemsdine Talbi Sunderland Actif 146 / 143 40% 5 20.04.2027 -
Amaury Morales Leon Actif 114 / 122 40% 2 18.04.2027 -
Leo Castledine Middlesbrough Actif 131 / 127 40% 4 16.04.2027 -
Mathys Tel Tottenham Actif 147 / 145 40% 5 16.04.2027 -
Carlos Espí Real Madrid Actif 127 / 131 40% 2 12.04.2027 -
David Mella Deportivo La Coruña Actif 124 / 136 40% 1 10.04.2027 -
Louis Leroux FC Nantes Actif 132 / 127 40% 1 09.04.2027 -
Kobbie Mainoo Manchester United Actif 145 / 153 40% 1 05.04.2027 -
Will Lankshear Middlesbrough Actif 123 / 121 40% 1 04.04.2027 -
Gianluca Prestianni Benfica Actif 134 / 133 40% 3 29.03.2027 -
Antoni Milambo Brentford Actif 142 / 144 40% 1 27.03.2027 -
Jeff Ekhator Juventus Actif 135 / 130 40% 3 26.03.2027 -
Jonás Luna Wanderers Actif 120 / 130 40% 2 23.03.2027 -
Rocco Vata Watford Actif 115 / 121 40% 3 22.03.2027 -
Lovro Zvonarek Estrela da Amadora Actif 128 / 125 40% 1 22.03.2027 -
Jan Virgili Club Brugge Actif 128 / 139 40% 1 06.03.2027 -
Nico O'Reilly Manchester City Actif 159 / 161 40% 1 04.03.2027 -
Boubacar Kamara Aston Villa Actif 167 / 169 40% 6 28.12.2026 -
Amadou Onana Aston Villa Actif 150 / 160 40% 5 28.12.2026 -
Eduardo Camavinga Real Madrid Actif 171 / 160 40% 4 28.12.2026 -
Johnny Cardoso Atlético Madrid Actif 149 / 151 40% 8 27.12.2026 -
Ilaix Moriba Celta Actif 154 / 147 40% 5 27.12.2026 -
Moisés Caicedo Chelsea Actif 164 / 174 40% 6 26.12.2026 -
João Neves Paris Saint-Germain Actif 172 / 171 40% 3 26.12.2026 -
Gavi Barcelona Actif 150 / 160 40% 5 25.12.2026 -
Carlos Romero Villarreal Actif 144 / 150 40% 4 25.12.2026 -
Willian Pacho Paris Saint-Germain Actif 164 / 159 40% 1 23.12.2026 Plus d'infos
Adam Wharton Crystal Palace Actif 151 / 149 40% 3 17.12.2026 -
Pablo Barrios Atlético Madrid Actif 159 / 153 40% 1 17.12.2026 -
Alexis Mac Allister Liverpool Actif 156 / 161 40% 6 14.12.2026 -
Tino Livramento Newcastle United Actif 156 / 153 40% 3 14.12.2026 -
Pape Guèye Villarreal Actif 157 / 155 40% 2 14.12.2026 -
Pedri Barcelona Actif 180 / 179 40% 6 12.12.2026 -
Cristian Uribe Monaco Actif 153 / 146 40% 6 08.12.2026 -
Ryan Gravenberch Liverpool Actif 159 / 161 40% 4 06.12.2026 -
Dominik Szoboszlai Liverpool Actif 169 / 159 40% 4 05.12.2026 Observer
Quinten Timber Crystal Palace Actif 150 / 144 40% 1 04.12.2026 -
James Garner Everton Actif 148 / 145 40% 2 29.11.2026 -
Vitinha Paris Saint-Germain Actif 175 / 183 40% 2 29.11.2026 -
Elliot Anderson Manchester City Actif 149 / 158 40% 2 27.11.2026 -
Joško Gvardiol Manchester City Actif 159 / 158 40% 1 27.11.2026 Plus d'infos
Alex Scott Bournemouth Actif 153 / 152 40% 2 19.11.2026 -
Mats Wieffer Brighton Actif 148 / 150 40% 2 13.11.2026 -
William Saliba Arsenal Actif 173 / 169 40% 4 11.11.2026 -
Sergi Cardona KAA Gent Actif 145 / 150 40% 1 03.11.2026 -
Aurélien Tchouaméni Real Madrid Actif 173 / 173 40% 5 29.10.2026 Observer
Jarrad Branthwaite Everton Actif 153 / 153 40% 2 28.10.2026 -
Miloš Kerkez Liverpool Actif 147 / 154 40% 1 26.10.2026 -
Maxence Lacroix Chelsea Actif 143 / 151 40% 2 15.10.2026 -
Ousmane Diomande Nottingham Forest Actif 146 / 151 40% 1 15.10.2026 -
Achraf Hakimi Paris Saint-Germain Actif 181 / 182 40% 1 11.10.2026 -
Wesley Fofana Chelsea Actif 159 / 164 40% 3 09.10.2026 -
Jules Koundé Barcelona Actif 161 / 154 40% 1 09.10.2026 -
Eric García Barcelona Actif 165 / 153 40% 4 04.10.2026 -
Sven Botman Newcastle United Actif 163 / 157 40% 1 03.10.2026 -
Micky van de Ven Tottenham Actif 152 / 155 40% 1 01.10.2026 -
Trent Alexander-Arnold Real Madrid Actif 154 / 159 40% 1 29.09.2026 -
Florian Wirtz Liverpool Actif 167 / 165 40% 1 21.09.2026 -
Óscar Mingueza Crystal Palace Actif 142 / 144 40% 1 17.09.2026 -
Ibrahima Konaté Real Madrid Actif 158 / 164 40% 1 16.09.2026 -
Matthijs de Ligt Manchester United Actif 161 / 154 40% 1 11.09.2026 -
Enzo Fernández Manchester City Actif 166 / 168 40% 1 09.09.2026 -
Ilyas Ansah Hull City Actif 133 / 128 40% 1 17.08.2026 -